METAR Data
IDs: Format: Raw Decoded Include TAF

Data at: 0957 UTC 13 Aug 2022

EDDR 130950Z AUTO 10013KT 070V130 CAVOK 27/08 Q1017 NOSIG